Time;durP1;ratioP1;P1;durP2;ratioP2;P2;SDS_P1;SDS_P2;PMS_P1;PMS_P2;Temp;Humidity;BMP_temperature;BMP_pressure;BME280_temperature;BME280_humidity;BME280_pressure;Samples;Min_cycle;Max_cycle;Signal;HPM_P1;HPM_P2
2022/07/03 00:01:43;;;;;;;7.82;2.72;;;17.50;99.90;;;;;;4929278;29;20031;-68
2022/07/03 00:04:09;;;;;;;5.35;2.63;;;17.50;99.90;;;;;;4925731;29;20020;-69
2022/07/03 00:06:34;;;;;;;5.90;2.85;;;17.50;99.90;;;;;;4924968;29;20044;-69
2022/07/03 00:09:02;;;;;;;8.50;2.65;;;17.40;99.90;;;;;;4936670;29;20028;-69
2022/07/03 00:11:28;;;;;;;4.18;3.05;;;17.30;99.90;;;;;;4920996;29;20031;-68
2022/07/03 00:13:53;;;;;;;10.70;3.58;;;17.30;99.90;;;;;;4924217;29;20048;-69
2022/07/03 00:16:19;;;;;;;7.15;2.92;;;17.30;99.90;;;;;;4929810;29;20479;-69
2022/07/03 00:18:44;;;;;;;6.35;2.95;;;17.50;99.90;;;;;;4934843;29;20743;-69
2022/07/03 00:21:11;;;;;;;15.13;4.78;;;17.20;99.90;;;;;;4937978;29;20396;-70
2022/07/03 00:23:43;;;;;;;9.55;3.05;;;17.10;99.90;;;;;;4936977;29;20027;-68
2022/07/03 00:26:09;;;;;;;10.35;3.83;;;17.10;99.90;;;;;;4920114;29;20110;-75
2022/07/03 00:28:34;;;;;;;11.57;3.00;;;17.70;99.90;;;;;;4920745;29;20110;-72
2022/07/03 00:31:00;;;;;;;8.68;3.20;;;17.70;99.90;;;;;;4919523;29;20024;-75
2022/07/03 00:33:27;;;;;;;7.68;3.63;;;17.60;99.90;;;;;;4920382;29;20069;-74
2022/07/03 00:35:54;;;;;;;5.22;2.70;;;17.70;99.90;;;;;;4914236;29;20115;-73
2022/07/03 00:38:19;;;;;;;10.10;2.83;;;17.00;99.90;;;;;;4901312;29;20028;-71
2022/07/03 00:40:45;;;;;;;7.00;2.88;;;17.10;99.90;;;;;;4901842;29;20027;-71
2022/07/03 00:43:10;;;;;;;11.32;2.58;;;17.20;99.90;;;;;;4918380;29;20032;-71
2022/07/03 00:45:36;;;;;;;10.45;3.20;;;17.30;99.90;;;;;;4909232;29;20028;-72
2022/07/03 00:48:01;;;;;;;10.57;3.22;;;17.90;99.90;;;;;;4913690;29;20481;-70
2022/07/03 00:50:33;;;;;;;10.70;3.60;;;17.40;99.90;;;;;;4920272;29;20055;-68
2022/07/03 00:52:59;;;;;;;4.63;2.65;;;17.40;99.90;;;;;;4936933;29;20023;-68
2022/07/03 00:55:26;;;;;;;6.25;2.47;;;17.30;99.90;;;;;;4937563;29;20015;-68
2022/07/03 00:57:51;;;;;;;6.00;2.38;;;17.20;99.90;;;;;;4920746;29;20024;-68
2022/07/03 01:00:17;;;;;;;5.13;2.60;;;17.10;99.90;;;;;;4920326;29;20042;-68
2022/07/03 01:02:53;;;;;;;7.38;3.00;;;17.00;99.90;;;;;;4936831;29;20043;-68
2022/07/03 01:05:32;;;;;;;5.90;3.10;;;16.90;99.90;;;;;;4937356;29;20036;-68
2022/07/03 01:08:22;;;;;;;5.90;3.03;;;16.80;99.90;;;;;;4937552;29;20028;-68
2022/07/03 01:11:06;;;;;;;5.82;3.05;;;16.60;99.90;;;;;;4920365;29;20544;-68
2022/07/03 01:13:47;;;;;;;8.73;3.35;;;16.60;99.90;;;;;;4936929;29;20483;-68
2022/07/03 01:16:23;;;;;;;10.13;3.97;;;16.50;99.90;;;;;;4921642;29;20039;-68
2022/07/03 01:18:52;;;;;;;7.68;3.03;;;16.40;99.90;;;;;;4920119;29;20091;-68
2022/07/03 01:21:31;;;;;;;8.45;3.28;;;16.40;99.90;;;;;;4936557;29;20031;-68
2022/07/03 01:24:20;;;;;;;6.18;3.47;;;16.30;99.90;;;;;;4920192;29;20038;-68
2022/07/03 01:26:47;;;;;;;5.70;2.70;;;16.30;99.90;;;;;;4922884;29;20079;-68
2022/07/03 01:29:22;;;;;;;7.82;3.50;;;16.40;99.90;;;;;;4936667;29;20035;-69
2022/07/03 01:31:49;;;;;;;10.90;3.30;;;16.40;99.90;;;;;;4936592;29;20036;-68
2022/07/03 01:34:14;;;;;;;7.97;3.42;;;16.40;99.90;;;;;;4936051;29;20047;-68
2022/07/03 01:36:40;;;;;;;13.65;3.45;;;16.30;99.90;;;;;;4920148;29;20390;-69
2022/07/03 01:39:06;;;;;;;8.60;3.25;;;16.30;99.90;;;;;;4936797;29;20388;-69
2022/07/03 01:41:31;;;;;;;7.30;3.40;;;16.30;99.90;;;;;;4936555;29;20028;-69
2022/07/03 01:43:59;;;;;;;7.60;3.10;;;16.20;99.90;;;;;;4936448;29;20027;-69
2022/07/03 01:46:28;;;;;;;22.83;6.32;;;16.20;99.90;;;;;;4919783;29;20024;-68
2022/07/03 01:48:54;;;;;;;12.50;5.30;;;16.20;99.90;;;;;;4919578;29;20065;-69
2022/07/03 01:51:20;;;;;;;14.63;5.53;;;16.10;99.90;;;;;;4936506;29;20048;-68
2022/07/03 01:53:47;;;;;;;12.10;4.47;;;16.10;99.90;;;;;;4919661;29;20032;-68
2022/07/03 01:56:13;;;;;;;5.97;3.53;;;16.10;99.90;;;;;;4936157;29;20023;-70
2022/07/03 01:58:39;;;;;;;12.73;3.75;;;16.10;99.90;;;;;;4935839;29;20153;-69
2022/07/03 02:01:07;;;;;;;14.25;3.72;;;16.00;99.90;;;;;;4936516;29;20037;-69
2022/07/03 02:03:35;;;;;;;9.25;4.45;;;16.00;99.90;;;;;;4919410;29;20110;-69
2022/07/03 02:06:10;;;;;;;10.30;3.78;;;16.20;99.90;;;;;;4936501;29;20036;-69
2022/07/03 02:08:45;;;;;;;8.63;4.07;;;16.00;99.90;;;;;;4936283;29;20040;-69
2022/07/03 02:11:15;;;;;;;;;;;16.00;99.90;;;;;;4936615;29;20078;-69
2022/07/03 02:14:11;;;;;;;8.90;3.35;;;16.10;99.90;;;;;;4935982;29;19926;-69
2022/07/03 02:16:54;;;;;;;5.57;3.55;;;16.00;99.90;;;;;;4920206;29;20035;-69
2022/07/03 02:19:22;;;;;;;11.75;2.83;;;16.00;99.90;;;;;;4918890;29;20046;-69
2022/07/03 02:21:51;;;;;;;7.03;3.63;;;15.80;99.90;;;;;;4919352;29;20055;-68
2022/07/03 02:24:18;;;;;;;7.75;2.92;;;16.10;99.90;;;;;;4918493;29;20032;-68
2022/07/03 02:26:56;;;;;;;11.40;3.90;;;17.10;99.90;;;;;;4935829;29;20024;-68
2022/07/03 02:29:28;;;;;;;7.00;3.80;;;16.20;99.90;;;;;;4904078;29;20039;-68
2022/07/03 02:31:57;;;;;;;9.55;3.90;;;16.10;99.90;;;;;;4918815;29;20044;-68
2022/07/03 02:34:23;;;;;;;13.98;4.88;;;16.10;99.90;;;;;;4918833;29;20031;-68
2022/07/03 02:36:49;;;;;;;24.83;7.07;;;16.10;99.90;;;;;;4935793;29;20043;-68
2022/07/03 02:39:20;;;;;;;12.70;5.05;;;16.10;99.90;;;;;;4918826;29;20059;-68
2022/07/03 02:42:19;;;;;;;9.75;4.03;;;16.10;99.90;;;;;;4918746;29;20059;-69
2022/07/03 02:44:50;;;;;;;7.60;3.75;;;16.00;99.90;;;;;;4906181;29;20115;-69
2022/07/03 02:47:57;;;;;;;14.18;4.10;;;16.00;99.90;;;;;;4935453;29;20028;-69
2022/07/03 02:50:23;;;;;;;10.73;4.05;;;16.00;99.90;;;;;;4913553;29;20036;-70
2022/07/03 02:53:09;;;;;;;11.82;5.03;;;16.30;99.90;;;;;;4918036;29;20027;-69
2022/07/03 02:55:43;;;;;;;12.93;5.13;;;15.90;99.90;;;;;;4920412;29;20035;-69
2022/07/03 02:58:46;;;;;;;12.55;5.25;;;15.90;99.90;;;;;;4935421;29;20468;-70
2022/07/03 03:01:33;;;;;;;19.33;6.25;;;15.80;99.90;;;;;;4935575;29;20059;-69
2022/07/03 03:04:11;;;;;;;20.80;6.07;;;15.70;99.90;;;;;;4918909;29;20032;-69
2022/07/03 03:06:37;;;;;;;20.63;5.80;;;15.70;99.90;;;;;;4920071;29;20024;-70
2022/07/03 03:09:03;;;;;;;12.13;4.97;;;15.60;99.90;;;;;;4918471;29;20451;-69
2022/07/03 03:11:45;;;;;;;8.75;4.22;;;15.50;99.90;;;;;;4935541;29;20031;-69
2022/07/03 03:14:15;;;;;;;15.55;5.40;;;15.40;99.90;;;;;;4935151;29;20048;-69
2022/07/03 03:17:01;;;;;;;19.40;6.68;;;15.40;99.90;;;;;;4935622;29;20102;-69
2022/07/03 03:19:26;;;;;;;6.97;3.85;;;16.20;99.90;;;;;;4912609;29;20041;-70
2022/07/03 03:21:58;;;;;;;5.45;3.10;;;15.30;99.90;;;;;;4932751;29;20035;-70
2022/07/03 03:24:24;;;;;;;10.98;3.47;;;15.50;99.90;;;;;;4935386;29;20118;-70
2022/07/03 03:26:50;;;;;;;12.35;4.82;;;15.60;99.90;;;;;;4918649;29;20530;-70
2022/07/03 03:29:15;;;;;;;19.48;5.70;;;15.50;99.90;;;;;;4921709;29;20028;-70
2022/07/03 03:31:41;;;;;;;16.27;4.90;;;16.30;99.90;;;;;;4922101;29;20028;-69
2022/07/03 03:34:06;;;;;;;12.85;5.13;;;15.40;99.90;;;;;;4939137;29;20031;-69
2022/07/03 03:36:32;;;;;;;27.05;6.75;;;15.40;99.90;;;;;;4921589;29;20024;-69
2022/07/03 03:38:57;;;;;;;13.30;5.07;;;15.40;99.90;;;;;;4939103;29;20027;-69
2022/07/03 03:41:23;;;;;;;23.10;6.75;;;15.30;99.90;;;;;;4921994;29;20090;-69
2022/07/03 03:43:48;;;;;;;19.90;6.30;;;15.30;99.90;;;;;;4922141;29;20549;-69
2022/07/03 03:46:17;;;;;;;27.65;7.80;;;15.20;99.90;;;;;;4938649;29;20062;-70
2022/07/03 03:48:42;;;;;;;35.97;9.23;;;15.20;99.90;;;;;;4926056;29;20055;-70
2022/07/03 03:51:08;;;;;;;46.83;9.07;;;15.20;99.90;;;;;;4921845;29;20062;-70
2022/07/03 03:53:33;;;;;;;21.02;7.18;;;15.20;99.90;;;;;;4938515;29;20027;-70
2022/07/03 03:56:08;;;;;;;12.90;4.15;;;15.10;99.90;;;;;;4938735;29;20079;-70
2022/07/03 03:58:35;;;;;;;31.58;8.48;;;15.20;99.90;;;;;;4938712;29;20123;-70
2022/07/03 04:01:01;;;;;;;22.70;7.38;;;15.30;99.90;;;;;;4938708;29;20024;-69
2022/07/03 04:03:28;;;;;;;20.20;6.18;;;15.30;99.90;;;;;;4921519;29;20047;-70
2022/07/03 04:05:53;;;;;;;24.83;7.63;;;15.20;99.90;;;;;;4938414;29;20038;-69
2022/07/03 04:08:20;;;;;;;27.50;7.00;;;15.20;99.90;;;;;;4938501;29;20028;-70
2022/07/03 04:10:45;;;;;;;19.05;6.72;;;15.20;99.90;;;;;;4938331;29;20098;-70
2022/07/03 04:13:11;;;;;;;13.80;5.80;;;15.20;99.90;;;;;;4937440;29;20067;-70
2022/07/03 04:15:36;;;;;;;16.95;5.72;;;15.30;99.90;;;;;;4938491;29;20028;-70
2022/07/03 04:18:02;;;;;;;21.52;6.78;;;15.30;99.90;;;;;;4937993;29;20020;-70
2022/07/03 04:20:27;;;;;;;19.52;6.15;;;15.60;99.90;;;;;;4920663;29;20023;-70
2022/07/03 04:22:53;;;;;;;9.40;3.80;;;16.00;99.90;;;;;;4938397;29;20476;-70
2022/07/03 04:25:19;;;;;;;8.02;3.70;;;16.50;99.90;;;;;;4937528;29;20035;-70
2022/07/03 04:27:44;;;;;;;12.15;4.20;;;17.00;99.90;;;;;;4938105;29;20439;-69
2022/07/03 04:30:10;;;;;;;10.18;4.35;;;17.00;99.90;;;;;;4938130;29;20031;-70
2022/07/03 04:32:37;;;;;;;24.92;7.00;;;17.20;99.90;;;;;;4937976;29;20027;-70
2022/07/03 04:35:03;;;;;;;12.75;5.72;;;17.50;99.90;;;;;;4937908;29;20480;-70
2022/07/03 04:37:28;;;;;;;13.35;3.72;;;18.20;99.90;;;;;;4937738;29;20159;-70
2022/07/03 04:39:53;;;;;;;8.88;3.95;;;18.20;99.90;;;;;;4937543;29;20024;-70
2022/07/03 04:42:19;;;;;;;13.13;4.03;;;18.30;99.90;;;;;;4937886;29;20028;-70
2022/07/03 04:44:44;;;;;;;15.50;4.85;;;18.30;99.90;;;;;;4937944;29;20106;-70
2022/07/03 04:47:10;;;;;;;17.67;4.55;;;18.20;99.90;;;;;;4935291;29;20397;-70
2022/07/03 04:49:35;;;;;;;8.57;3.80;;;18.30;99.90;;;;;;4932046;29;20039;-70
2022/07/03 04:52:01;;;;;;;18.67;5.03;;;18.30;99.90;;;;;;4937649;29;20027;-69
2022/07/03 04:54:27;;;;;;;19.10;5.80;;;18.00;99.90;;;;;;4928110;29;20055;-75
2022/07/03 04:56:52;;;;;;;20.52;4.20;;;18.20;99.90;;;;;;4937882;29;20023;-74
2022/07/03 04:59:18;;;;;;;8.80;3.38;;;18.40;99.90;;;;;;4924926;29;20385;-73
2022/07/03 05:01:44;;;;;;;13.20;4.03;;;19.00;99.90;;;;;;4935838;29;20372;-74
2022/07/03 05:04:09;;;;;;;12.07;3.65;;;18.60;99.90;;;;;;4920808;29;20074;-75
2022/07/03 05:06:35;;;;;;;9.35;3.78;;;18.80;99.90;;;;;;4937359;29;20106;-74
2022/07/03 05:09:00;;;;;;;9.02;2.65;;;19.20;99.90;;;;;;4937619;29;20472;-74
2022/07/03 05:11:26;;;;;;;9.20;3.13;;;20.10;99.50;;;;;;4937529;29;20480;-75
2022/07/03 05:13:51;;;;;;;8.32;2.40;;;21.00;98.40;;;;;;4903542;29;20043;-75
2022/07/03 05:16:18;;;;;;;7.47;2.85;;;21.30;95.60;;;;;;4918302;29;20564;-75
2022/07/03 05:18:43;;;;;;;5.70;2.95;;;22.20;94.90;;;;;;4920652;29;20158;-75
2022/07/03 05:21:09;;;;;;;13.02;3.78;;;21.10;95.50;;;;;;4936845;29;20107;-75
2022/07/03 05:23:34;;;;;;;12.43;4.40;;;20.50;98.20;;;;;;4935918;29;20071;-75
2022/07/03 05:26:00;;;;;;;19.58;4.30;;;19.80;99.60;;;;;;4936244;29;20028;-76
2022/07/03 05:28:25;;;;;;;18.27;4.88;;;19.80;99.30;;;;;;4936617;29;20038;-73
2022/07/03 05:30:51;;;;;;;31.23;8.00;;;20.10;99.90;;;;;;4937155;29;20047;-76
2022/07/03 05:33:16;;;;;;;29.45;7.78;;;20.10;99.90;;;;;;4936452;29;20046;-77
2022/07/03 05:35:42;;;;;;;28.75;6.32;;;19.70;99.50;;;;;;4937086;29;20032;-76
2022/07/03 05:38:07;;;;;;;15.30;6.05;;;19.70;99.90;;;;;;4937096;29;20039;-75
2022/07/03 05:40:33;;;;;;;38.22;7.88;;;19.20;99.50;;;;;;4936407;29;20032;-77
2022/07/03 05:42:58;;;;;;;31.13;9.65;;;20.30;99.10;;;;;;4936876;29;20024;-76
2022/07/03 05:45:24;;;;;;;12.00;5.13;;;21.10;97.60;;;;;;4927388;29;20036;-75
2022/07/03 05:47:50;;;;;;;24.33;8.48;;;21.70;96.50;;;;;;4934347;29;20047;-76
2022/07/03 05:50:15;;;;;;;9.98;3.88;;;21.90;95.40;;;;;;4924576;29;20079;-74
2022/07/03 05:52:41;;;;;;;16.48;4.38;;;22.00;94.80;;;;;;4898601;29;20020;-75
2022/07/03 05:55:06;;;;;;;5.75;2.88;;;21.80;93.20;;;;;;4924790;29;20023;-75
2022/07/03 05:57:32;;;;;;;5.13;3.53;;;22.40;92.40;;;;;;4936002;29;20034;-75
2022/07/03 05:59:57;;;;;;;18.33;5.38;;;23.10;92.40;;;;;;4936496;29;20527;-75
2022/07/03 06:02:23;;;;;;;12.63;3.95;;;22.70;93.70;;;;;;4930617;29;20111;-74
2022/07/03 06:04:48;;;;;;;10.45;3.55;;;22.00;93.60;;;;;;4935000;29;20032;-74
2022/07/03 06:07:16;;;;;;;7.22;4.03;;;22.40;91.70;;;;;;4923695;29;20473;-75
2022/07/03 06:09:42;;;;;;;11.07;5.43;;;23.40;90.30;;;;;;4917204;29;20024;-73
2022/07/03 06:12:08;;;;;;;10.13;4.07;;;23.30;89.40;;;;;;4916758;29;20028;-74
2022/07/03 06:14:33;;;;;;;9.68;4.30;;;24.40;83.30;;;;;;4932961;29;20079;-75
2022/07/03 06:16:59;;;;;;;9.05;3.65;;;24.90;79.00;;;;;;4918880;29;20395;-75
2022/07/03 06:19:24;;;;;;;9.82;4.25;;;23.90;80.30;;;;;;4933438;29;20535;-74
2022/07/03 06:21:50;;;;;;;11.65;5.53;;;23.60;85.50;;;;;;4918358;29;20027;-74
2022/07/03 06:24:15;;;;;;;6.88;3.80;;;23.60;87.60;;;;;;4915015;29;20026;-75
2022/07/03 06:26:41;;;;;;;7.03;3.70;;;23.70;83.60;;;;;;4935619;29;20020;-75
2022/07/03 06:29:06;;;;;;;18.80;5.00;;;25.40;77.60;;;;;;4935017;29;20034;-75
2022/07/03 06:31:32;;;;;;;6.38;3.17;;;25.10;80.00;;;;;;4917028;29;20115;-75
2022/07/03 06:33:58;;;;;;;5.72;2.85;;;25.30;77.70;;;;;;4935626;29;20108;-75
2022/07/03 06:36:23;;;;;;;15.02;4.68;;;25.40;73.00;;;;;;4904210;29;20024;-75
2022/07/03 06:38:49;;;;;;;8.00;3.28;;;26.10;70.40;;;;;;4917066;29;20488;-71
2022/07/03 06:41:17;;;;;;;6.32;3.08;;;27.40;67.50;;;;;;4934063;29;20503;-70
2022/07/03 06:43:43;;;;;;;8.23;4.20;;;26.60;64.40;;;;;;4886167;29;20036;-69
2022/07/03 06:46:08;;;;;;;6.65;3.55;;;26.10;67.10;;;;;;4931754;29;20031;-69
2022/07/03 06:48:34;;;;;;;12.40;3.80;;;27.00;60.80;;;;;;4898648;29;20055;-77
2022/07/03 06:51:00;;;;;;;6.63;3.47;;;26.20;63.20;;;;;;4904025;29;20502;-71
2022/07/03 06:53:25;;;;;;;4.75;3.53;;;25.60;65.00;;;;;;4926561;29;20032;-69
2022/07/03 06:55:51;;;;;;;5.97;3.28;;;25.00;67.00;;;;;;4933478;29;20024;-64
2022/07/03 06:58:16;;;;;;;9.50;4.47;;;26.20;66.80;;;;;;4932317;29;20059;-64
2022/07/03 07:01:02;;;;;;;6.57;3.38;;;26.30;65.50;;;;;;4934481;29;20123;-66
2022/07/03 07:03:27;;;;;;;5.65;3.25;;;25.20;70.50;;;;;;4933196;29;20078;-65
2022/07/03 07:05:53;;;;;;;10.50;3.72;;;24.40;71.20;;;;;;4933280;29;20055;-65
2022/07/03 07:08:18;;;;;;;7.25;3.20;;;25.20;71.70;;;;;;4932178;29;20115;-66
2022/07/03 07:10:44;;;;;;;8.88;3.83;;;24.70;73.00;;;;;;4934017;29;20039;-75
2022/07/03 07:13:10;;;;;;;9.05;4.15;;;26.40;67.60;;;;;;4933849;29;20051;-72
2022/07/03 07:15:35;;;;;;;10.70;3.78;;;26.40;66.70;;;;;;4933181;29;20083;-64
2022/07/03 07:18:01;;;;;;;13.10;5.35;;;27.10;64.50;;;;;;4934699;29;20028;-65
2022/07/03 07:20:26;;;;;;;7.65;3.72;;;27.40;61.90;;;;;;4934945;29;20016;-64
2022/07/03 07:22:52;;;;;;;5.63;3.25;;;27.80;59.90;;;;;;4935140;29;20024;-64
2022/07/03 07:25:17;;;;;;;5.82;3.30;;;28.20;59.30;;;;;;4934453;29;20028;-64
2022/07/03 07:27:43;;;;;;;11.23;4.10;;;27.60;57.90;;;;;;4934679;29;20419;-64
2022/07/03 07:30:09;;;;;;;8.43;3.33;;;28.70;57.70;;;;;;4935095;29;20053;-64
2022/07/03 07:32:34;;;;;;;3.42;2.90;;;28.10;58.30;;;;;;4934955;29;20043;-71
2022/07/03 07:35:00;;;;;;;9.45;3.05;;;27.40;58.60;;;;;;4934465;29;20393;-64
2022/07/03 07:37:25;;;;;;;17.20;4.45;;;27.70;57.80;;;;;;4934043;29;20024;-66
2022/07/03 07:39:51;;;;;;;7.47;3.30;;;28.30;56.80;;;;;;4934457;29;20032;-64
2022/07/03 07:42:16;;;;;;;13.27;4.43;;;27.60;55.00;;;;;;4934044;29;20020;-64
2022/07/03 07:45:04;;;;;;;11.18;3.35;;;26.70;60.60;;;;;;4928635;29;20039;-64
2022/07/03 07:47:33;;;;;;;9.35;3.45;;;28.70;55.90;;;;;;4915777;29;20047;-63
2022/07/03 07:49:58;;;;;;;5.47;2.90;;;28.70;56.20;;;;;;4928722;29;20032;-63
2022/07/03 07:52:24;;;;;;;5.85;2.92;;;28.40;55.10;;;;;;4934622;29;20050;-63
2022/07/03 07:54:50;;;;;;;5.13;2.45;;;29.00;53.50;;;;;;4934125;29;20538;-63
2022/07/03 07:57:15;;;;;;;9.07;2.70;;;28.80;54.10;;;;;;4933659;29;20402;-63
2022/07/03 07:59:41;;;;;;;9.38;2.90;;;29.60;52.80;;;;;;4934035;29;20047;-64
2022/07/03 08:07:34;;;;;;;4.90;2.95;;;29.10;53.60;;;;;;4934357;29;20514;-63
2022/07/03 08:10:00;;;;;;;7.30;3.20;;;28.00;54.00;;;;;;4933707;29;20043;-65
2022/07/03 08:12:25;;;;;;;8.60;3.05;;;27.90;55.10;;;;;;4933221;29;20036;-66
2022/07/03 08:14:51;;;;;;;6.80;3.28;;;28.70;55.30;;;;;;4932904;29;20179;-67
2022/07/03 08:17:16;;;;;;;7.60;2.10;;;27.80;55.60;;;;;;4919473;29;20534;-65
2022/07/03 08:19:42;;;;;;;5.25;2.17;;;27.80;55.50;;;;;;4914160;29;20092;-64
2022/07/03 08:22:08;;;;;;;3.40;2.22;;;28.00;56.10;;;;;;4934712;29;20028;-65
2022/07/03 08:24:33;;;;;;;7.53;2.90;;;27.50;55.40;;;;;;4935767;29;20090;-65
2022/07/03 08:26:59;;;;;;;5.43;2.53;;;27.60;56.70;;;;;;4920860;29;20040;-69
2022/07/03 08:29:24;;;;;;;5.60;2.33;;;28.20;55.00;;;;;;4935737;29;20043;-67
2022/07/03 08:31:50;;;;;;;6.80;2.30;;;28.20;55.90;;;;;;4929317;29;20028;-66
2022/07/03 08:34:16;;;;;;;5.78;2.63;;;28.60;54.70;;;;;;4932427;29;20044;-66
2022/07/03 08:36:41;;;;;;;6.68;2.05;;;30.00;50.90;;;;;;4929520;29;20167;-66
2022/07/03 08:39:07;;;;;;;6.40;2.35;;;29.10;52.20;;;;;;4936431;29;20479;-67
2022/07/03 08:41:32;;;;;;;9.45;3.70;;;29.70;50.80;;;;;;4923962;29;20039;-67
2022/07/03 08:43:59;;;;;;;9.90;3.20;;;29.30;53.80;;;;;;4919536;29;20032;-67
2022/07/03 08:46:25;;;;;;;6.05;2.70;;;30.40;51.40;;;;;;4936110;29;20039;-67
2022/07/03 08:48:54;;;;;;;6.78;2.28;;;28.80;52.60;;;;;;4917058;29;20102;-67
2022/07/03 08:51:20;;;;;;;6.50;2.33;;;29.30;54.20;;;;;;4914043;29;20123;-66
2022/07/03 08:54:04;;;;;;;4.47;2.45;;;28.50;53.70;;;;;;4919181;29;20119;-66
2022/07/03 08:56:30;;;;;;;8.80;2.58;;;29.90;51.40;;;;;;4932456;29;20032;-67
2022/07/03 08:58:57;;;;;;;10.10;2.97;;;30.40;52.40;;;;;;4914054;29;20023;-66
2022/07/03 09:01:22;;;;;;;6.45;2.53;;;29.70;51.30;;;;;;4924627;29;20028;-66
2022/07/03 09:03:48;;;;;;;3.70;2.00;;;29.70;52.00;;;;;;4916440;29;20047;-66
2022/07/03 09:06:14;;;;;;;7.68;2.40;;;29.40;53.30;;;;;;4903566;29;20463;-67
2022/07/03 09:08:40;;;;;;;5.40;2.13;;;29.80;51.30;;;;;;4920892;29;20024;-66
2022/07/03 09:11:09;;;;;;;5.35;1.90;;;30.20;52.80;;;;;;4911694;29;20024;-66
2022/07/03 09:13:34;;;;;;;4.47;1.77;;;28.90;52.10;;;;;;4900363;29;20052;-66
2022/07/03 09:19:40;;;;;;;6.68;2.10;;;30.10;50.50;;;;;;4915620;29;20043;-65
2022/07/03 09:22:19;;;;;;;3.33;2.00;;;28.90;52.90;;;;;;4915532;29;20028;-66
2022/07/03 09:24:44;;;;;;;8.82;2.35;;;28.70;53.20;;;;;;4914385;29;20104;-66
2022/07/03 09:27:10;;;;;;;8.15;2.65;;;28.60;52.70;;;;;;4930407;29;20035;-66
2022/07/03 09:29:36;;;;;;;6.72;2.58;;;28.60;51.90;;;;;;4919003;29;20400;-66
2022/07/03 09:32:01;;;;;;;4.85;1.70;;;28.40;53.80;;;;;;4931658;29;20031;-66
2022/07/03 09:34:27;;;;;;;6.32;2.17;;;28.70;54.20;;;;;;4920006;29;20039;-66
2022/07/03 09:36:52;;;;;;;4.10;2.13;;;28.90;52.50;;;;;;4922881;29;20028;-66
2022/07/03 09:39:31;;;;;;;7.13;2.20;;;28.90;52.50;;;;;;4926428;29;20020;-67
2022/07/03 09:42:03;;;;;;;7.57;2.25;;;28.70;52.90;;;;;;4915850;29;20103;-66
2022/07/03 09:44:45;;;;;;;4.88;1.83;;;30.50;53.30;;;;;;4919029;29;20036;-67
2022/07/03 09:47:20;;;;;;;5.35;2.13;;;29.90;50.10;;;;;;4915584;29;20036;-67
2022/07/03 09:49:54;;;;;;;7.47;2.67;;;30.00;50.80;;;;;;4925374;29;20034;-66
2022/07/03 09:52:28;;;;;;;2.60;1.40;;;27.80;52.50;;;;;;4929995;29;20525;-66
2022/07/03 09:54:55;;;;;;;6.25;2.40;;;29.60;53.10;;;;;;4919516;29;20023;-66
2022/07/03 09:57:22;;;;;;;8.02;2.63;;;29.90;52.60;;;;;;4924843;29;20030;-67
2022/07/03 09:59:48;;;;;;;3.42;2.00;;;29.10;54.20;;;;;;4913892;29;20039;-64
2022/07/03 10:02:14;;;;;;;8.88;2.40;;;29.90;53.00;;;;;;4929244;29;20024;-64
2022/07/03 10:04:39;;;;;;;6.95;2.63;;;30.40;54.50;;;;;;4928273;29;20020;-65
2022/07/03 10:07:05;;;;;;;4.50;2.15;;;31.10;51.90;;;;;;4926578;29;20028;-65
2022/07/03 10:09:32;;;;;;;10.65;3.38;;;32.40;49.90;;;;;;4931830;29;20122;-66
2022/07/03 10:12:02;;;;;;;5.32;2.60;;;31.30;51.00;;;;;;4926131;29;20028;-66
2022/07/03 10:14:29;;;;;;;8.75;2.67;;;32.00;49.10;;;;;;4922472;29;20055;-66
2022/07/03 10:16:58;;;;;;;5.32;3.15;;;31.10;50.20;;;;;;4924332;29;20032;-66
2022/07/03 10:19:26;;;;;;;7.35;2.28;;;30.30;50.70;;;;;;4925831;29;20032;-66
2022/07/03 10:21:55;;;;;;;6.50;2.38;;;30.10;51.90;;;;;;4918504;29;20032;-68
2022/07/03 10:24:25;;;;;;;6.40;2.72;;;30.60;51.90;;;;;;4924322;29;20036;-68
2022/07/03 10:26:52;;;;;;;7.70;4.13;;;30.00;51.10;;;;;;4922894;29;20031;-64
2022/07/03 10:29:17;;;;;;;9.63;3.25;;;31.40;51.00;;;;;;4933939;29;20035;-65
2022/07/03 10:31:46;;;;;;;6.22;3.25;;;30.60;52.20;;;;;;4902055;29;20028;-66
2022/07/03 10:34:12;;;;;;;8.18;2.83;;;30.40;50.30;;;;;;4934184;29;20031;-66
2022/07/03 10:36:49;;;;;;;7.03;2.33;;;29.90;53.00;;;;;;4915954;29;20071;-66
2022/07/03 10:39:21;;;;;;;3.67;2.50;;;30.80;51.20;;;;;;4896540;29;20024;-66
2022/07/03 10:44:48;;;;;;;8.07;4.28;;;32.00;50.10;;;;;;4918918;29;20039;-67
2022/07/03 10:47:42;;;;;;;8.38;4.30;;;31.70;49.20;;;;;;4898307;29;20563;-66
2022/07/03 10:50:21;;;;;;;5.90;3.08;;;30.10;50.10;;;;;;4925758;29;20048;-66
2022/07/03 10:52:46;;;;;;;9.32;2.75;;;29.10;51.30;;;;;;4916641;29;20038;-69
2022/07/03 10:55:13;;;;;;;6.28;2.40;;;28.90;52.00;;;;;;4917680;29;20028;-68
2022/07/03 10:57:39;;;;;;;6.63;2.75;;;30.40;51.80;;;;;;4918163;29;20511;-69
2022/07/03 11:00:06;;;;;;;6.22;2.60;;;30.70;50.00;;;;;;4935065;29;20051;-69
2022/07/03 11:02:31;;;;;;;15.10;3.72;;;30.10;52.00;;;;;;4934664;29;20050;-66
2022/07/03 11:05:03;;;;;;;6.68;2.70;;;30.00;52.60;;;;;;4934229;29;20118;-67
2022/07/03 11:07:48;;;;;;;8.45;3.42;;;31.40;51.90;;;;;;4929420;29;20500;-67
2022/07/03 11:10:22;;;;;;;6.10;2.40;;;32.30;48.40;;;;;;4932768;29;20058;-67
2022/07/03 11:13:15;;;;;;;10.07;2.35;;;32.30;48.20;;;;;;4933805;29;20039;-67
2022/07/03 11:15:44;;;;;;;9.52;1.85;;;31.70;49.10;;;;;;4916852;29;20381;-67
2022/07/03 11:18:19;;;;;;;7.07;2.22;;;30.60;50.20;;;;;;4923483;29;20038;-65
2022/07/03 11:20:44;;;;;;;3.90;2.30;;;30.30;50.60;;;;;;4934094;29;20051;-65
2022/07/03 11:23:10;;;;;;;4.60;1.98;;;30.10;51.00;;;;;;4934809;29;20094;-65
2022/07/03 11:25:39;;;;;;;5.32;2.10;;;29.50;52.50;;;;;;4930240;29;20526;-65
2022/07/03 11:28:05;;;;;;;6.43;2.15;;;30.00;50.60;;;;;;4935114;29;20083;-66
2022/07/03 11:30:31;;;;;;;9.77;2.58;;;29.20;50.80;;;;;;4926818;29;20202;-64
2022/07/03 11:32:57;;;;;;;6.53;1.75;;;30.00;53.60;;;;;;4933682;29;20028;-65
2022/07/03 11:35:54;;;;;;;6.97;2.53;;;30.70;50.00;;;;;;4934471;29;20126;-65
2022/07/03 11:38:21;;;;;;;6.40;2.60;;;31.10;48.90;;;;;;4931322;29;20055;-65
2022/07/03 11:40:49;;;;;;;16.75;3.78;;;30.30;50.70;;;;;;4934238;29;20028;-65
2022/07/03 11:43:14;;;;;;;6.82;1.80;;;30.70;50.00;;;;;;4917725;29;20035;-69
2022/07/03 11:45:40;;;;;;;5.53;1.75;;;30.70;49.20;;;;;;4934772;29;20031;-69
2022/07/03 11:48:08;;;;;;;7.15;2.33;;;30.50;50.10;;;;;;4935006;29;20036;-68
2022/07/03 11:50:38;;;;;;;3.63;1.42;;;30.50;50.10;;;;;;4938390;29;20519;-69
2022/07/03 11:53:28;;;;;;;7.30;1.50;;;31.00;51.20;;;;;;4938338;29;20038;-68
2022/07/03 11:55:59;;;;;;;4.47;1.60;;;30.60;49.30;;;;;;4938095;29;20028;-69
2022/07/03 11:58:25;;;;;;;7.13;1.70;;;31.40;48.20;;;;;;4938465;29;20380;-70
2022/07/03 12:00:52;;;;;;;4.35;1.40;;;30.50;49.50;;;;;;4921250;29;20396;-69
2022/07/03 12:03:23;;;;;;;3.70;1.40;;;30.40;49.60;;;;;;4938338;29;20106;-69
2022/07/03 12:05:53;;;;;;;4.28;1.42;;;30.60;51.20;;;;;;4938160;29;20106;-69
2022/07/03 12:08:33;;;;;;;5.65;1.98;;;31.20;49.50;;;;;;4938205;29;20028;-69
2022/07/03 12:11:00;;;;;;;4.60;1.55;;;31.80;48.10;;;;;;4938311;29;20432;-69
2022/07/03 12:13:27;;;;;;;5.07;1.35;;;31.20;49.90;;;;;;4922878;29;20106;-69
2022/07/03 12:15:53;;;;;;;3.40;1.40;;;30.60;49.30;;;;;;4936834;29;20031;-69
2022/07/03 12:18:18;;;;;;;5.90;1.58;;;30.10;49.30;;;;;;4936950;29;20111;-68
2022/07/03 12:20:44;;;;;;;7.68;1.38;;;30.10;49.00;;;;;;4936758;29;20067;-68
2022/07/03 12:23:09;;;;;;;5.18;1.83;;;31.20;49.70;;;;;;4938060;29;20031;-68
2022/07/03 12:25:40;;;;;;;5.28;1.58;;;30.30;49.20;;;;;;4937885;29;20036;-69
2022/07/03 12:28:05;;;;;;;7.38;1.75;;;30.10;49.70;;;;;;4937937;29;20032;-69
2022/07/03 12:30:31;;;;;;;8.55;2.33;;;30.90;48.10;;;;;;4936671;29;20472;-69
2022/07/03 12:32:56;;;;;;;2.97;1.30;;;30.90;49.20;;;;;;4936591;29;20464;-69
2022/07/03 12:35:25;;;;;;;3.15;1.48;;;31.70;48.70;;;;;;4936604;29;20020;-69
2022/07/03 12:37:51;;;;;;;4.30;1.70;;;30.90;47.20;;;;;;4937557;29;20031;-69
2022/07/03 12:40:17;;;;;;;4.28;1.55;;;30.90;48.10;;;;;;4937635;29;20027;-69
2022/07/03 12:42:52;;;;;;;2.80;1.20;;;30.60;50.10;;;;;;4937577;29;20111;-69
2022/07/03 12:45:22;;;;;;;3.10;1.08;;;30.80;47.60;;;;;;4937425;29;20023;-69
2022/07/03 12:48:02;;;;;;;3.70;1.00;;;30.70;46.20;;;;;;4937531;29;20040;-69
2022/07/03 12:50:46;;;;;;;3.10;1.20;;;29.60;49.30;;;;;;4937661;29;20051;-69
2022/07/03 12:53:11;;;;;;;4.78;1.65;;;29.20;49.40;;;;;;4936384;29;20436;-69
2022/07/03 12:55:37;;;;;;;3.25;1.48;;;28.90;50.00;;;;;;4935992;29;20034;-69
2022/07/03 13:00:56;;;;;;;6.88;1.60;;;29.40;50.00;;;;;;4936920;29;20035;-69
2022/07/03 13:03:51;;;;;;;3.60;1.15;;;28.80;50.80;;;;;;4937179;29;20023;-69
2022/07/03 13:06:16;;;;;;;;;;;28.80;51.70;;;;;;4928498;29;20028;-67